createdAt,value
2022-11-16T04:57:31.227Z,99651.37
2022-11-16T05:00:34.046Z,99651.37
2022-11-16T05:03:36.165Z,99646.84
2022-11-16T05:06:39.291Z,99655.66
2022-11-16T05:09:43.694Z,99649.69
2022-11-16T05:12:46.767Z,99650.03
2022-11-16T05:15:49.113Z,99645.19
2022-11-16T05:19:10.346Z,99650.00
2022-11-16T05:22:12.835Z,99644.88
2022-11-16T05:25:15.540Z,99637.66
2022-11-16T05:28:17.657Z,99638.44
2022-11-16T05:31:19.935Z,99639.06
2022-11-16T05:34:23.273Z,99636.38
2022-11-16T05:37:26.733Z,99618.72
2022-11-16T05:40:28.953Z,99619.22
2022-11-16T05:43:31.412Z,99612.97
2022-11-16T05:46:34.952Z,99611.06
2022-11-16T05:49:37.571Z,99610.38
2022-11-16T05:52:40.141Z,99603.72
2022-11-16T05:55:43.196Z,99602.41
2022-11-16T05:58:46.153Z,99602.84
2022-11-16T06:01:50.069Z,99603.75
2022-11-16T06:04:52.601Z,99602.03
2022-11-16T06:07:56.193Z,99592.31
2022-11-16T06:11:03.484Z,99601.16
2022-11-16T06:14:06.204Z,99596.09
2022-11-16T06:17:10.253Z,99600.34
2022-11-16T06:20:12.546Z,99601.53
2022-11-16T06:23:15.282Z,99602.41
2022-11-16T06:26:17.374Z,99599.13
2022-11-16T06:29:20.378Z,99600.56
2022-11-16T06:32:22.424Z,99600.78
2022-11-16T06:35:25.053Z,99591.53
2022-11-16T06:38:28.531Z,99594.97
2022-11-16T06:41:32.080Z,99596.34
2022-11-16T06:44:34.323Z,99598.00
2022-11-16T06:47:37.049Z,99589.84
2022-11-16T06:50:39.396Z,99584.69
2022-11-16T06:53:41.904Z,99573.22
2022-11-16T06:56:44.112Z,99581.69
2022-11-16T06:59:46.680Z,99572.28
2022-11-16T07:02:49.177Z,99572.88
2022-11-16T07:05:52.303Z,99574.53
2022-11-16T07:08:55.246Z,99576.63
2022-11-16T07:11:58.377Z,99574.16
2022-11-16T07:15:00.548Z,99570.00
2022-11-16T07:18:05.569Z,99563.03
2022-11-16T07:21:11.324Z,99562.94
2022-11-16T07:24:13.885Z,99561.84
2022-11-16T07:27:18.141Z,99558.19
2022-11-16T07:30:20.846Z,99556.06
2022-11-16T07:33:23.160Z,99560.44
2022-11-16T07:36:27.525Z,99559.13
2022-11-16T07:39:29.713Z,99562.62
2022-11-16T07:42:32.763Z,99550.09
2022-11-16T07:45:35.183Z,99557.13
2022-11-16T07:48:40.389Z,99543.94
2022-11-16T07:51:47.642Z,99548.63
2022-11-16T07:54:51.579Z,99545.44
2022-11-16T07:57:53.942Z,99539.00
2022-11-16T08:01:07.014Z,99536.81
2022-11-16T08:04:09.700Z,99526.59
2022-11-16T08:07:12.013Z,99524.84
2022-11-16T08:10:15.156Z,99520.31
2022-11-16T08:13:17.290Z,99530.16
2022-11-16T08:16:21.676Z,99530.69
2022-11-16T08:19:24.906Z,99529.37
2022-11-16T08:22:28.079Z,99524.94
2022-11-16T08:25:30.269Z,99530.53
2022-11-16T08:28:33.905Z,99530.69
2022-11-16T08:31:36.129Z,99526.16
2022-11-16T08:34:39.804Z,99522.34
2022-11-16T08:37:41.969Z,99516.72
2022-11-16T08:40:45.828Z,99517.50
2022-11-16T08:43:50.394Z,99514.28
2022-11-16T08:46:53.013Z,99515.81
2022-11-16T08:49:55.908Z,99521.87
2022-11-16T08:53:00.613Z,99518.94
2022-11-16T08:56:04.597Z,99519.66
2022-11-16T08:59:07.193Z,99517.72
2022-11-16T09:02:10.131Z,99504.91
2022-11-16T09:05:12.948Z,99516.25
2022-11-16T09:08:15.452Z,99518.84
2022-11-16T09:11:20.280Z,99506.94
2022-11-16T09:14:22.395Z,99503.88
2022-11-16T09:17:24.690Z,99506.03
2022-11-16T09:20:26.758Z,99502.47
2022-11-16T09:23:29.068Z,99496.56
2022-11-16T09:26:31.140Z,99509.41
2022-11-16T09:29:34.604Z,99495.06
2022-11-16T09:32:36.659Z,99492.25
2022-11-16T09:35:40.167Z,99490.03
2022-11-16T09:39:19.007Z,99488.75
2022-11-16T09:42:30.209Z,99479.50
2022-11-16T09:45:49.875Z,99480.84
2022-11-16T09:48:56.351Z,99478.38
2022-11-16T09:52:01.984Z,99481.66
2022-11-16T09:55:24.828Z,99478.94
2022-11-16T09:58:49.659Z,99473.03
2022-11-16T10:01:58.497Z,99459.97
2022-11-16T10:05:25.878Z,99453.16
2022-11-16T10:08:44.767Z,99456.38
2022-11-16T10:12:09.003Z,99442.41
2022-11-16T10:15:23.753Z,99436.94
2022-11-16T10:18:41.543Z,99437.06
2022-11-16T10:22:22.815Z,99430.66
2022-11-16T10:25:32.929Z,99430.91
2022-11-16T10:28:51.784Z,99420.44
2022-11-16T10:32:07.124Z,99419.94
2022-11-16T10:35:11.877Z,99417.84
2022-11-16T10:38:21.587Z,99412.31
2022-11-16T10:42:06.100Z,99421.41
2022-11-16T10:45:21.703Z,99409.13
2022-11-16T10:48:29.224Z,99398.69
2022-11-16T10:51:31.512Z,99396.66
2022-11-16T10:54:33.544Z,99396.84
2022-11-16T10:57:56.497Z,99393.16
2022-11-16T11:00:59.118Z,99379.94
2022-11-16T11:04:22.189Z,99373.12
2022-11-16T11:07:33.170Z,99376.06
2022-11-16T11:10:40.570Z,99367.28
2022-11-16T11:13:42.627Z,99366.72
2022-11-16T11:16:45.083Z,99357.38
2022-11-16T11:19:56.434Z,99358.28
2022-11-16T11:23:02.468Z,99350.59
2022-11-16T11:26:05.359Z,99349.00
2022-11-16T11:29:20.844Z,99344.28
2022-11-16T11:32:30.758Z,99354.13
2022-11-16T11:35:33.057Z,99341.19
2022-11-16T11:38:57.482Z,99343.78
2022-11-16T11:42:02.590Z,99335.91
2022-11-16T11:45:13.648Z,99333.44
2022-11-16T11:48:28.032Z,99331.69
2022-11-16T11:51:41.045Z,99321.50
2022-11-16T11:54:47.705Z,99320.53
2022-11-16T11:57:50.486Z,99314.69
2022-11-16T12:01:13.607Z,99308.69
2022-11-16T12:04:42.443Z,99315.75
2022-11-16T12:07:50.580Z,99306.56
2022-11-16T12:10:57.627Z,99311.44
2022-11-16T12:14:15.212Z,99313.28
2022-11-16T12:17:54.425Z,99310.72
2022-11-16T12:21:13.386Z,99308.66
2022-11-16T12:24:27.196Z,99310.22
2022-11-16T12:27:46.861Z,99302.66
2022-11-16T12:31:10.248Z,99302.59
2022-11-16T12:34:39.345Z,99301.50
2022-11-16T12:38:12.522Z,99306.22
2022-11-16T12:41:26.388Z,99295.06
2022-11-16T12:45:17.185Z,99293.50
2022-11-16T12:48:47.705Z,99292.25
2022-11-16T12:51:56.223Z,99281.03
2022-11-16T12:55:36.553Z,99275.63
2022-11-16T12:58:53.361Z,99287.31
2022-11-16T13:02:04.774Z,99286.84
2022-11-16T13:05:23.204Z,99282.91
2022-11-16T13:08:50.609Z,99283.53
2022-11-16T13:11:58.098Z,99280.88
2022-11-16T13:15:02.835Z,99275.31
2022-11-16T13:18:15.648Z,99277.31
2022-11-16T13:21:29.549Z,99274.88
2022-11-16T13:24:46.709Z,99281.47
2022-11-16T13:28:14.483Z,99281.47
2022-11-16T13:31:32.001Z,99279.56
2022-11-16T13:34:38.000Z,99284.34
2022-11-16T13:37:40.323Z,99279.19
2022-11-16T13:40:42.751Z,99266.78
2022-11-16T13:43:49.189Z,99270.41
2022-11-16T13:46:56.888Z,99272.19
2022-11-16T13:50:02.028Z,99268.81
2022-11-16T13:56:51.320Z,99265.94
2022-11-16T14:00:02.801Z,99268.50
2022-11-16T14:03:28.042Z,99264.53
2022-11-16T14:06:30.239Z,99259.66
2022-11-16T14:09:47.915Z,99259.03
2022-11-16T14:12:52.787Z,99255.25
2022-11-16T14:16:19.732Z,99247.88
2022-11-16T14:19:48.505Z,99248.31
2022-11-16T14:23:15.221Z,99241.84
2022-11-16T14:26:39.356Z,99246.41
2022-11-16T14:30:02.482Z,99244.56
2022-11-16T14:33:04.779Z,99242.12
2022-11-16T14:36:09.287Z,99241.66
2022-11-16T14:39:31.565Z,99241.22
2022-11-16T14:43:09.881Z,99244.19
2022-11-16T14:46:35.884Z,99242.94
2022-11-16T14:49:46.915Z,99238.22
2022-11-16T14:52:52.433Z,99231.28
2022-11-16T14:56:06.433Z,99229.34
2022-11-16T14:59:16.543Z,99230.78
2022-11-16T15:02:27.276Z,99225.09
2022-11-16T15:05:34.758Z,99221.94
2022-11-16T15:08:48.045Z,99213.38
2022-11-16T15:12:10.383Z,99216.84
2022-11-16T15:15:12.437Z,99218.47
2022-11-16T15:18:20.499Z,99217.53
2022-11-16T15:21:23.311Z,99216.56
2022-11-16T15:24:31.506Z,99218.13
2022-11-16T15:27:38.377Z,99209.13
2022-11-16T15:30:41.381Z,99204.22
2022-11-16T15:33:45.216Z,99213.06
2022-11-16T15:36:48.681Z,99205.97
2022-11-16T15:39:50.726Z,99209.75
2022-11-16T15:42:53.640Z,99199.63
2022-11-16T15:45:56.099Z,99198.06
2022-11-16T15:48:59.041Z,99198.75
2022-11-16T15:52:01.639Z,99200.44
2022-11-16T15:55:04.172Z,99204.66
2022-11-16T15:58:14.765Z,99202.31
2022-11-16T16:01:17.725Z,99193.81
2022-11-16T16:04:20.618Z,99195.53
2022-11-16T16:07:42.276Z,99195.38
2022-11-16T16:10:44.677Z,99195.75
2022-11-16T16:14:02.023Z,99192.69
2022-11-16T16:17:04.352Z,99196.62
2022-11-16T16:20:07.530Z,99185.47
2022-11-16T16:23:16.180Z,99189.09
2022-11-16T16:26:18.288Z,99189.09
2022-11-16T16:29:20.594Z,99197.00
2022-11-16T16:32:36.767Z,99200.31
2022-11-16T16:35:39.060Z,99191.19
2022-11-16T16:38:41.460Z,99192.13
2022-11-16T16:41:43.772Z,99198.44
2022-11-16T16:44:47.276Z,99205.06
2022-11-16T16:47:49.693Z,99200.13
2022-11-16T16:50:51.810Z,99194.56
